createdAt,value
2019-01-08T00:01:22.599Z,35.25
2019-01-08T00:07:17.648Z,35.19
2019-01-08T00:13:12.573Z,34.43
2019-01-08T00:19:07.557Z,32.05
2019-01-08T00:25:02.552Z,21.72
2019-01-08T00:30:57.549Z,31.5
2019-01-08T00:36:52.565Z,28.52
2019-01-08T00:42:47.565Z,22.21
2019-01-08T00:48:42.557Z,32.39
2019-01-08T00:54:37.593Z,30.8
2019-01-08T01:00:32.545Z,25.17
2019-01-08T01:06:27.545Z,21
2019-01-08T01:12:22.581Z,27
2019-01-08T01:18:17.558Z,28.25
2019-01-08T01:24:12.611Z,18.13
2019-01-08T01:30:07.583Z,19.78
2019-01-08T01:36:02.621Z,25.45
2019-01-08T01:41:57.562Z,20.3
2019-01-08T01:47:52.632Z,18.84
2019-01-08T01:53:47.558Z,16.72
2019-01-08T01:59:42.591Z,19.5
2019-01-08T02:05:37.577Z,27.77
2019-01-08T02:11:32.602Z,21.18
2019-01-08T02:17:27.587Z,23.45
2019-01-08T02:23:22.574Z,18.2
2019-01-08T02:29:17.564Z,22.95
2019-01-08T02:35:12.589Z,26.04
2019-01-08T02:41:07.615Z,15.98
2019-01-08T02:47:02.623Z,16
2019-01-08T02:52:57.585Z,20.59
2019-01-08T02:58:52.582Z,31.89
2019-01-08T03:04:47.580Z,41.72
2019-01-08T03:10:42.570Z,26.31
2019-01-08T03:16:37.591Z,31.07
2019-01-08T03:22:32.600Z,29.31
2019-01-08T03:28:27.605Z,27.41
2019-01-08T03:34:22.626Z,23.46
2019-01-08T03:40:17.601Z,25.62
2019-01-08T03:46:12.584Z,20.96
2019-01-08T03:52:07.600Z,20.67
2019-01-08T03:58:02.645Z,26.47
2019-01-08T04:03:57.591Z,22.89
2019-01-08T04:09:52.594Z,29.91
2019-01-08T04:15:47.590Z,28.33
2019-01-08T04:21:42.631Z,24.78
2019-01-08T04:27:37.596Z,28.65
2019-01-08T04:33:32.633Z,25.92
2019-01-08T04:39:27.597Z,29.27
2019-01-08T04:45:22.614Z,26.41
2019-01-08T04:51:17.615Z,28.34
2019-01-08T04:57:12.598Z,19.92
2019-01-08T05:03:07.640Z,27.26
2019-01-08T05:09:02.608Z,18.74
2019-01-08T05:14:57.624Z,26.74
2019-01-08T05:20:52.645Z,25.26
2019-01-08T05:26:47.635Z,30.36
2019-01-08T05:32:42.699Z,27.38
2019-01-08T05:38:37.655Z,26.32
2019-01-08T05:44:32.611Z,29.64
2019-01-08T05:50:27.591Z,165.87
2019-01-08T05:56:22.615Z,32.15
2019-01-08T06:02:17.621Z,32.49
2019-01-08T06:08:12.659Z,32.07
2019-01-08T06:14:07.617Z,31.26
2019-01-08T06:20:02.611Z,28.54
2019-01-08T06:25:57.615Z,30.28
2019-01-08T06:31:52.619Z,25.55
2019-01-08T06:37:47.633Z,25.69
2019-01-08T06:43:42.626Z,26.44
2019-01-08T06:49:37.695Z,25.88
2019-01-08T06:55:32.649Z,20.77
2019-01-08T07:01:27.656Z,35.66
2019-01-08T07:07:22.628Z,50.26
2019-01-08T07:13:17.613Z,41.29
2019-01-08T07:19:12.643Z,31.21
2019-01-08T07:25:07.639Z,27.99
2019-01-08T07:31:02.629Z,42.33
2019-01-08T07:36:57.650Z,40.24
2019-01-08T07:42:52.633Z,43.88
2019-01-08T07:48:47.643Z,36.94
2019-01-08T07:54:42.638Z,48.22
2019-01-08T08:00:37.641Z,44.74
2019-01-08T08:06:32.655Z,41.45
2019-01-08T08:12:27.655Z,37.17
2019-01-08T08:18:22.629Z,43.29
2019-01-08T08:24:17.634Z,48.63
2019-01-08T08:30:12.655Z,49.15
2019-01-08T08:36:07.632Z,49.76
2019-01-08T08:42:02.634Z,54.13
2019-01-08T08:47:57.651Z,49.82
2019-01-08T08:53:52.927Z,42.99
2019-01-08T08:59:47.660Z,46.27
2019-01-08T09:05:42.631Z,64.88
2019-01-08T09:11:37.674Z,67.54
2019-01-08T09:17:32.635Z,66.93
2019-01-08T09:23:27.675Z,67.01
2019-01-08T09:29:22.664Z,68.98
2019-01-08T09:35:17.667Z,80.49
2019-01-08T09:53:02.686Z,71.27
2019-01-08T09:53:02.749Z,75.73
2019-01-08T09:53:02.757Z,75.73
2019-01-08T09:58:57.663Z,80.48
2019-01-08T10:04:52.656Z,76.42
2019-01-08T10:10:47.688Z,71.34
2019-01-08T10:16:42.659Z,57.95
2019-01-08T10:22:37.672Z,74.16
2019-01-08T10:28:32.668Z,62.34
2019-01-08T10:34:27.656Z,59.97
2019-01-08T10:40:22.716Z,62.7
2019-01-08T10:46:17.662Z,67.2
2019-01-08T10:52:12.687Z,62.16
2019-01-08T10:58:07.682Z,67.59
2019-01-08T11:04:02.695Z,66.42
2019-01-08T11:09:57.701Z,69.88
2019-01-08T11:15:52.665Z,71.26
2019-01-08T11:21:47.752Z,75.1
2019-01-08T11:27:42.685Z,77.18
2019-01-08T11:33:37.685Z,86.97
2019-01-08T11:39:32.685Z,84.51
2019-01-08T11:45:27.687Z,87.73
2019-01-08T11:51:22.726Z,88.33
2019-01-08T11:57:17.685Z,88.06
2019-01-08T12:03:12.684Z,90.4
2019-01-08T12:09:07.696Z,102.12
2019-01-08T12:15:02.689Z,106.53
2019-01-08T12:20:57.680Z,107.01
2019-01-08T12:26:52.683Z,106.87
2019-01-08T12:32:47.696Z,110.96
2019-01-08T12:38:42.704Z,111.84
2019-01-08T12:44:37.712Z,132.51
2019-01-08T12:50:32.724Z,109.65
2019-01-08T12:56:27.703Z,119.76
2019-01-08T13:02:22.681Z,127.87
2019-01-08T13:08:17.716Z,118.14
2019-01-08T13:14:12.707Z,122.62
2019-01-08T13:20:07.711Z,125.31
2019-01-08T13:26:06.862Z,142.85
2019-01-08T13:31:57.717Z,166.06
2019-01-08T13:37:52.734Z,155.19
2019-01-08T13:43:47.738Z,148.58
2019-01-08T13:49:42.743Z,130.16
2019-01-08T13:55:37.725Z,141.6
2019-01-08T14:01:32.722Z,150.17
2019-01-08T14:07:27.710Z,127.26
2019-01-08T14:13:22.711Z,138.11
2019-01-08T14:19:17.782Z,133.99
2019-01-08T14:25:12.764Z,138.34
2019-01-08T14:37:02.758Z,151.91
2019-01-08T14:42:57.755Z,144.26
2019-01-08T14:48:52.742Z,145.74
2019-01-08T14:54:47.721Z,140.15
2019-01-08T15:00:42.733Z,149.7
2019-01-08T15:06:37.726Z,130.19
2019-01-08T15:12:32.759Z,141.47
2019-01-08T15:18:27.729Z,136.32
2019-01-08T15:24:22.812Z,139.38
2019-01-08T15:30:17.741Z,151.6
2019-01-08T15:36:12.738Z,147
2019-01-08T15:42:07.716Z,145.09
2019-01-08T15:48:02.764Z,176.07
2019-01-08T15:53:58.133Z,182.14
2019-01-08T15:59:52.755Z,171.64
2019-01-08T16:05:47.817Z,157.84
2019-01-08T16:11:42.742Z,168.72
2019-01-08T16:17:37.799Z,179.4
2019-01-08T16:23:32.756Z,173.01
2019-01-08T16:29:27.738Z,168.58
2019-01-08T16:35:22.735Z,189.85
2019-01-08T16:41:17.757Z,161.43
2019-01-08T16:47:12.789Z,168.78
2019-01-08T16:53:07.797Z,148.95
2019-01-08T16:59:02.764Z,143.63
2019-01-08T17:04:57.797Z,126.93
2019-01-08T17:10:52.784Z,128.49
2019-01-08T17:16:47.761Z,119.06
2019-01-08T17:22:42.772Z,187.45
2019-01-08T17:28:37.777Z,172.43
2019-01-08T17:34:32.767Z,161.84
2019-01-08T17:40:27.781Z,152.39
2019-01-08T17:46:22.770Z,152.74
2019-01-08T17:52:17.798Z,132.71
2019-01-08T17:58:12.778Z,146.18
2019-01-08T18:04:07.771Z,173.86
2019-01-08T18:10:02.823Z,189.03
2019-01-08T18:15:57.815Z,177.53
2019-01-08T18:21:52.770Z,190.67
2019-01-08T18:27:47.771Z,170.94
2019-01-08T18:33:51.068Z,155
2019-01-08T18:39:37.792Z,177.26
2019-01-08T18:45:32.808Z,172.97
2019-01-08T18:51:27.781Z,192.04
2019-01-08T18:57:22.791Z,203.9
2019-01-08T19:03:17.802Z,190.28
2019-01-08T19:09:12.781Z,212.67
2019-01-08T19:15:07.792Z,200.86
2019-01-08T19:21:02.775Z,201.1
2019-01-08T19:26:58.549Z,183.4
2019-01-08T19:32:52.851Z,182.96
2019-01-08T19:38:47.779Z,185.33
2019-01-08T19:44:42.814Z,173.97
2019-01-08T19:50:37.875Z,176.25
2019-01-08T19:56:32.812Z,166.93
2019-01-08T20:02:27.826Z,167.9
2019-01-08T20:08:22.813Z,147.96
2019-01-08T20:14:17.793Z,165.16
2019-01-08T20:20:12.815Z,200.66
2019-01-08T20:26:07.824Z,192.63
2019-01-08T20:32:02.807Z,171.75
2019-01-08T20:37:57.830Z,171.07
2019-01-08T20:43:52.857Z,137.27
2019-01-08T20:49:47.827Z,128.41
2019-01-08T20:55:42.820Z,99.03
2019-01-08T21:01:37.809Z,101.36
2019-01-08T21:07:32.819Z,93.83
2019-01-08T21:13:27.874Z,82.51
2019-01-08T21:19:22.906Z,89.6
2019-01-08T21:25:17.817Z,82.43
2019-01-08T21:31:12.846Z,97.54
2019-01-08T21:37:07.842Z,89.09
2019-01-08T21:43:02.823Z,83.47
2019-01-08T21:48:57.831Z,43.61
2019-01-08T21:54:52.831Z,39.35
2019-01-08T22:00:47.861Z,24.69
2019-01-08T22:06:42.839Z,28.82
2019-01-08T22:12:37.839Z,19.4
2019-01-08T22:18:32.848Z,42.59
2019-01-08T22:24:27.821Z,26.86
2019-01-08T22:30:22.819Z,21.67
2019-01-08T22:36:17.841Z,33.98
2019-01-08T22:42:12.811Z,36.59
2019-01-08T22:48:07.819Z,36.49
2019-01-08T22:54:02.830Z,24.93
2019-01-08T22:59:57.837Z,67.38
2019-01-08T23:05:52.864Z,21.77
2019-01-08T23:11:47.824Z,22.56
2019-01-08T23:17:42.863Z,32.21
2019-01-08T23:23:37.856Z,72.75
2019-01-08T23:29:32.836Z,62.66
2019-01-08T23:35:27.835Z,86.53
2019-01-08T23:41:22.849Z,42.11
2019-01-08T23:47:17.861Z,30.53
2019-01-08T23:53:12.847Z,28.81
2019-01-08T23:59:07.863Z,20.96
